Time;durP1;ratioP1;P1;durP2;ratioP2;P2;SDS_P1;SDS_P2;PMS_P1;PMS_P2;Temp;Humidity;BMP_temperature;BMP_pressure;BME280_temperature;BME280_humidity;BME280_pressure;Samples;Min_cycle;Max_cycle;Signal;HPM_P1;HPM_P2
2024/01/09 00:00:08;;;;;;;27.05;18.7;;;;;;;-2.95;74.62305;95909.58;;;;
2024/01/09 00:01:09;;;;;;;27.05;18.7;;;;;;;-2.95;74.62305;95909.58;;;;
2024/01/09 00:02:09;;;;;;;27.05;18.7;;;;;;;-2.95;74.62305;95909.58;;;;
2024/01/09 00:03:10;;;;;;;27.05;18.7;;;;;;;-2.95;74.62305;95909.58;;;;
2024/01/09 00:04:11;;;;;;;27.05;18.7;;;;;;;-2.95;74.62305;95909.58;;;;
2024/01/09 00:05:11;;;;;;;27.05;18.7;;;;;;;-2.95;74.62305;95909.58;;;;
2024/01/09 00:06:12;;;;;;;27.05;18.7;;;;;;;-2.95;74.62305;95909.58;;;;
2024/01/09 00:07:13;;;;;;;27.85;20.25;;;;;;;-3.07;74.6543;95890.29;;;;
2024/01/09 00:08:14;;;;;;;27.85;20.25;;;;;;;-3.07;74.6543;95890.29;;;;
2024/01/09 00:09:14;;;;;;;27.85;20.25;;;;;;;-3.07;74.6543;95890.29;;;;
2024/01/09 00:10:14;;;;;;;27.85;20.25;;;;;;;-3.07;74.6543;95890.29;;;;
2024/01/09 00:11:15;;;;;;;27.85;20.25;;;;;;;-3.07;74.6543;95890.29;;;;
2024/01/09 00:12:15;;;;;;;27.85;20.25;;;;;;;-3.07;74.6543;95890.29;;;;
2024/01/09 00:13:16;;;;;;;27.85;20.25;;;;;;;-3.07;74.6543;95890.29;;;;
2024/01/09 00:14:17;;;;;;;27.85;20.25;;;;;;;-3.07;74.6543;95890.29;;;;
2024/01/09 00:15:17;;;;;;;27.85;20.25;;;;;;;-3.07;74.6543;95890.29;;;;
2024/01/09 00:16:18;;;;;;;27.85;20.25;;;;;;;-3.07;74.6543;95890.29;;;;
2024/01/09 00:17:19;;;;;;;27.85;20.25;;;;;;;-3.07;74.6543;95890.29;;;;
2024/01/09 00:18:19;;;;;;;26.8;18.85;;;;;;;-3.09;74.81738;95876.65;;;;
2024/01/09 00:19:19;;;;;;;26.8;18.85;;;;;;;-3.09;74.81738;95876.65;;;;
2024/01/09 00:20:20;;;;;;;26.8;18.85;;;;;;;-3.09;74.81738;95876.65;;;;
2024/01/09 00:21:20;;;;;;;26.8;18.85;;;;;;;-3.09;74.81738;95876.65;;;;
2024/01/09 00:22:22;;;;;;;26.8;18.85;;;;;;;-3.09;74.81738;95876.65;;;;
2024/01/09 00:23:22;;;;;;;26.8;18.85;;;;;;;-3.09;74.81738;95876.65;;;;
2024/01/09 00:24:22;;;;;;;26.8;18.85;;;;;;;-3.09;74.81738;95876.65;;;;
2024/01/09 00:25:23;;;;;;;26.8;18.85;;;;;;;-3.09;74.81738;95876.65;;;;
2024/01/09 00:26:23;;;;;;;26.8;18.85;;;;;;;-3.09;74.81738;95876.65;;;;
2024/01/09 00:27:24;;;;;;;26.8;18.85;;;;;;;-3.09;74.81738;95876.65;;;;
2024/01/09 00:28:24;;;;;;;28.8;20.1;;;;;;;-3.04;74.67773;95873.25;;;;
2024/01/09 00:29:25;;;;;;;28.8;20.1;;;;;;;-3.04;74.67773;95873.25;;;;
2024/01/09 00:30:25;;;;;;;28.8;20.1;;;;;;;-3.04;74.67773;95873.25;;;;
2024/01/09 00:31:26;;;;;;;28.8;20.1;;;;;;;-3.04;74.67773;95873.25;;;;
2024/01/09 00:32:27;;;;;;;28.8;20.1;;;;;;;-3.04;74.67773;95873.25;;;;
2024/01/09 00:33:27;;;;;;;28.8;20.1;;;;;;;-3.04;74.67773;95873.25;;;;
2024/01/09 00:34:27;;;;;;;28.8;20.1;;;;;;;-3.04;74.67773;95873.25;;;;
2024/01/09 00:35:28;;;;;;;28.8;20.1;;;;;;;-3.04;74.67773;95873.25;;;;
2024/01/09 00:36:28;;;;;;;28.8;20.1;;;;;;;-3.04;74.67773;95873.25;;;;
2024/01/09 00:37:29;;;;;;;28.8;20.1;;;;;;;-3.04;74.67773;95873.25;;;;
2024/01/09 00:38:30;;;;;;;28.8;20.1;;;;;;;-3.04;74.67773;95873.25;;;;
2024/01/09 00:39:30;;;;;;;31.1;20.4;;;;;;;-2.95;74.52832;95870.87;;;;
2024/01/09 00:40:31;;;;;;;31.1;20.4;;;;;;;-2.95;74.52832;95870.87;;;;
2024/01/09 00:41:31;;;;;;;31.1;20.4;;;;;;;-2.95;74.52832;95870.87;;;;
2024/01/09 00:42:31;;;;;;;31.1;20.4;;;;;;;-2.95;74.52832;95870.87;;;;
2024/01/09 00:43:32;;;;;;;31.1;20.4;;;;;;;-2.95;74.52832;95870.87;;;;
2024/01/09 00:44:32;;;;;;;31.1;20.4;;;;;;;-2.95;74.52832;95870.87;;;;
2024/01/09 00:45:33;;;;;;;31.1;20.4;;;;;;;-2.95;74.52832;95870.87;;;;
2024/01/09 00:46:34;;;;;;;31.1;20.4;;;;;;;-2.95;74.52832;95870.87;;;;
2024/01/09 00:47:35;;;;;;;31.1;20.4;;;;;;;-2.95;74.52832;95870.87;;;;
2024/01/09 00:48:35;;;;;;;31.1;20.4;;;;;;;-2.95;74.52832;95870.87;;;;
2024/01/09 00:49:36;;;;;;;31.1;20.4;;;;;;;-2.95;74.52832;95870.87;;;;
2024/01/09 00:50:36;;;;;;;28.8;19.6;;;;;;;-2.74;74.24219;95871.33;;;;
2024/01/09 00:51:37;;;;;;;28.8;19.6;;;;;;;-2.74;74.24219;95871.33;;;;
2024/01/09 00:52:38;;;;;;;28.8;19.6;;;;;;;-2.74;74.24219;95871.33;;;;
2024/01/09 00:53:38;;;;;;;28.8;19.6;;;;;;;-2.74;74.24219;95871.33;;;;
2024/01/09 00:54:38;;;;;;;28.8;19.6;;;;;;;-2.74;74.24219;95871.33;;;;
2024/01/09 00:55:41;;;;;;;28.8;19.6;;;;;;;-2.74;74.24219;95871.33;;;;
2024/01/09 00:56:41;;;;;;;28.8;19.6;;;;;;;-2.74;74.24219;95871.33;;;;
2024/01/09 00:57:42;;;;;;;28.8;19.6;;;;;;;-2.74;74.24219;95871.33;;;;
2024/01/09 00:58:42;;;;;;;28.8;19.6;;;;;;;-2.74;74.24219;95871.33;;;;
2024/01/09 00:59:43;;;;;;;28.8;19.6;;;;;;;-2.74;74.24219;95871.33;;;;
2024/01/09 01:00:43;;;;;;;27.75;20.4;;;;;;;-2.53;73.73633;95870.17;;;;
2024/01/09 01:01:43;;;;;;;27.75;20.4;;;;;;;-2.53;73.73633;95870.17;;;;
2024/01/09 01:02:48;;;;;;;27.75;20.4;;;;;;;-2.53;73.73633;95870.17;;;;
2024/01/09 01:03:48;;;;;;;27.75;20.4;;;;;;;-2.53;73.73633;95870.17;;;;
2024/01/09 01:04:49;;;;;;;27.75;20.4;;;;;;;-2.53;73.73633;95870.17;;;;
2024/01/09 01:05:49;;;;;;;27.75;20.4;;;;;;;-2.53;73.73633;95870.17;;;;
2024/01/09 01:06:50;;;;;;;27.75;20.4;;;;;;;-2.53;73.73633;95870.17;;;;
2024/01/09 01:07:50;;;;;;;27.75;20.4;;;;;;;-2.53;73.73633;95870.17;;;;
2024/01/09 01:08:51;;;;;;;27.75;20.4;;;;;;;-2.53;73.73633;95870.17;;;;
2024/01/09 01:09:51;;;;;;;27.75;20.4;;;;;;;-2.53;73.73633;95870.17;;;;
2024/01/09 01:10:52;;;;;;;27.75;20.4;;;;;;;-2.53;73.73633;95870.17;;;;
2024/01/09 01:11:52;;;;;;;28.05;20.05;;;;;;;-2.79;74.8291;95884.69;;;;
2024/01/09 01:12:52;;;;;;;28.05;20.05;;;;;;;-2.79;74.8291;95884.69;;;;
2024/01/09 01:13:53;;;;;;;28.05;20.05;;;;;;;-2.79;74.8291;95884.69;;;;
2024/01/09 01:14:54;;;;;;;28.05;20.05;;;;;;;-2.79;74.8291;95884.69;;;;
2024/01/09 01:15:54;;;;;;;28.05;20.05;;;;;;;-2.79;74.8291;95884.69;;;;
2024/01/09 01:16:55;;;;;;;28.05;20.05;;;;;;;-2.79;74.8291;95884.69;;;;
2024/01/09 01:17:55;;;;;;;28.05;20.05;;;;;;;-2.79;74.8291;95884.69;;;;
2024/01/09 01:18:55;;;;;;;28.05;20.05;;;;;;;-2.79;74.8291;95884.69;;;;
2024/01/09 01:19:56;;;;;;;28.05;20.05;;;;;;;-2.79;74.8291;95884.69;;;;
2024/01/09 01:20:57;;;;;;;28.05;20.05;;;;;;;-2.79;74.8291;95884.69;;;;
2024/01/09 01:21:57;;;;;;;27.05;19.45;;;;;;;-2.84;74.91406;95887.61;;;;
2024/01/09 01:22:58;;;;;;;27.05;19.45;;;;;;;-2.84;74.91406;95887.61;;;;
2024/01/09 01:23:58;;;;;;;27.05;19.45;;;;;;;-2.84;74.91406;95887.61;;;;
2024/01/09 01:24:58;;;;;;;27.05;19.45;;;;;;;-2.84;74.91406;95887.61;;;;
2024/01/09 01:25:59;;;;;;;27.05;19.45;;;;;;;-2.84;74.91406;95887.61;;;;
2024/01/09 01:26:59;;;;;;;27.05;19.45;;;;;;;-2.84;74.91406;95887.61;;;;
2024/01/09 01:28:00;;;;;;;27.05;19.45;;;;;;;-2.84;74.91406;95887.61;;;;
2024/01/09 01:29:00;;;;;;;27.05;19.45;;;;;;;-2.84;74.91406;95887.61;;;;
2024/01/09 01:30:01;;;;;;;27.05;19.45;;;;;;;-2.84;74.91406;95887.61;;;;
2024/01/09 01:31:02;;;;;;;27.05;19.45;;;;;;;-2.84;74.91406;95887.61;;;;
2024/01/09 01:32:09;;;;;;;27.05;19.45;;;;;;;-2.84;74.91406;95887.61;;;;
2024/01/09 01:33:09;;;;;;;30.35;21.25;;;;;;;-2.84;74.9541;95894.56;;;;
2024/01/09 01:34:10;;;;;;;30.35;21.25;;;;;;;-2.84;74.9541;95894.56;;;;
2024/01/09 01:35:10;;;;;;;30.35;21.25;;;;;;;-2.84;74.9541;95894.56;;;;
2024/01/09 01:36:10;;;;;;;30.35;21.25;;;;;;;-2.84;74.9541;95894.56;;;;
2024/01/09 01:37:13;;;;;;;30.35;21.25;;;;;;;-2.84;74.9541;95894.56;;;;
2024/01/09 01:38:14;;;;;;;30.35;21.25;;;;;;;-2.84;74.9541;95894.56;;;;
2024/01/09 01:39:14;;;;;;;30.35;21.25;;;;;;;-2.84;74.9541;95894.56;;;;
2024/01/09 01:40:15;;;;;;;30.35;21.25;;;;;;;-2.84;74.9541;95894.56;;;;
2024/01/09 01:41:15;;;;;;;30.35;21.25;;;;;;;-2.84;74.9541;95894.56;;;;
2024/01/09 01:42:16;;;;;;;30.35;21.25;;;;;;;-2.84;74.9541;95894.56;;;;
2024/01/09 01:43:16;;;;;;;27.9;19.9;;;;;;;-2.83;74.93555;95894.9;;;;
2024/01/09 01:44:17;;;;;;;27.9;19.9;;;;;;;-2.83;74.93555;95894.9;;;;
2024/01/09 01:45:18;;;;;;;27.9;19.9;;;;;;;-2.83;74.93555;95894.9;;;;
2024/01/09 01:46:23;;;;;;;27.9;19.9;;;;;;;-2.83;74.93555;95894.9;;;;
2024/01/09 01:47:23;;;;;;;27.9;19.9;;;;;;;-2.83;74.93555;95894.9;;;;
2024/01/09 01:48:24;;;;;;;27.9;19.9;;;;;;;-2.83;74.93555;95894.9;;;;
2024/01/09 01:49:25;;;;;;;27.9;19.9;;;;;;;-2.83;74.93555;95894.9;;;;
2024/01/09 01:50:25;;;;;;;27.9;19.9;;;;;;;-2.83;74.93555;95894.9;;;;
2024/01/09 01:51:27;;;;;;;27.9;19.9;;;;;;;-2.83;74.93555;95894.9;;;;
2024/01/09 01:52:27;;;;;;;27.9;19.9;;;;;;;-2.83;74.93555;95894.9;;;;
2024/01/09 01:53:28;;;;;;;27.9;19.9;;;;;;;-2.83;74.93555;95894.9;;;;
2024/01/09 01:54:31;;;;;;;27.85;20.35;;;;;;;-2.82;74.86523;95891.78;;;;
2024/01/09 01:55:34;;;;;;;27.85;20.35;;;;;;;-2.82;74.86523;95891.78;;;;
2024/01/09 01:56:35;;;;;;;27.85;20.35;;;;;;;-2.82;74.86523;95891.78;;;;
2024/01/09 01:57:36;;;;;;;27.85;20.35;;;;;;;-2.82;74.86523;95891.78;;;;
2024/01/09 01:58:38;;;;;;;27.85;20.35;;;;;;;-2.82;74.86523;95891.78;;;;
2024/01/09 01:59:40;;;;;;;27.85;20.35;;;;;;;-2.82;74.86523;95891.78;;;;
2024/01/09 02:00:44;;;;;;;27.85;20.35;;;;;;;-2.82;74.86523;95891.78;;;;
2024/01/09 02:01:44;;;;;;;27.85;20.35;;;;;;;-2.82;74.86523;95891.78;;;;
2024/01/09 02:02:46;;;;;;;27.85;20.35;;;;;;;-2.82;74.86523;95891.78;;;;
2024/01/09 02:03:48;;;;;;;27.85;20.35;;;;;;;-2.82;74.86523;95891.78;;;;
2024/01/09 02:04:49;;;;;;;27.55;20.2;;;;;;;-2.78;75.03906;95888.04;;;;
2024/01/09 02:05:49;;;;;;;27.55;20.2;;;;;;;-2.78;75.03906;95888.04;;;;
2024/01/09 02:06:50;;;;;;;27.55;20.2;;;;;;;-2.78;75.03906;95888.04;;;;
2024/01/09 02:07:51;;;;;;;27.55;20.2;;;;;;;-2.78;75.03906;95888.04;;;;
2024/01/09 02:08:53;;;;;;;27.55;20.2;;;;;;;-2.78;75.03906;95888.04;;;;
2024/01/09 02:09:54;;;;;;;27.55;20.2;;;;;;;-2.78;75.03906;95888.04;;;;
2024/01/09 02:10:55;;;;;;;27.55;20.2;;;;;;;-2.78;75.03906;95888.04;;;;
2024/01/09 02:11:56;;;;;;;27.55;20.2;;;;;;;-2.78;75.03906;95888.04;;;;
2024/01/09 02:12:57;;;;;;;27.55;20.2;;;;;;;-2.78;75.03906;95888.04;;;;
2024/01/09 02:13:58;;;;;;;27.55;20.2;;;;;;;-2.78;75.03906;95888.04;;;;
2024/01/09 02:14:58;;;;;;;27.55;20.2;;;;;;;-2.78;75.03906;95888.04;;;;
2024/01/09 02:15:59;;;;;;;30.35;20.85;;;;;;;-2.72;74.81934;95887.15;;;;
2024/01/09 02:17:00;;;;;;;30.35;20.85;;;;;;;-2.72;74.81934;95887.15;;;;
2024/01/09 02:18:00;;;;;;;30.35;20.85;;;;;;;-2.72;74.81934;95887.15;;;;
2024/01/09 02:19:00;;;;;;;30.35;20.85;;;;;;;-2.72;74.81934;95887.15;;;;
2024/01/09 02:20:01;;;;;;;30.35;20.85;;;;;;;-2.72;74.81934;95887.15;;;;
2024/01/09 02:21:02;;;;;;;30.35;20.85;;;;;;;-2.72;74.81934;95887.15;;;;
2024/01/09 02:22:03;;;;;;;30.35;20.85;;;;;;;-2.72;74.81934;95887.15;;;;
2024/01/09 02:23:03;;;;;;;30.35;20.85;;;;;;;-2.72;74.81934;95887.15;;;;
2024/01/09 02:24:04;;;;;;;30.35;20.85;;;;;;;-2.72;74.81934;95887.15;;;;
2024/01/09 02:25:04;;;;;;;30.35;20.85;;;;;;;-2.72;74.81934;95887.15;;;;
2024/01/09 02:26:06;;;;;;;29.35;20.65;;;;;;;-2.79;75.01465;95876.11;;;;
2024/01/09 02:27:09;;;;;;;29.35;20.65;;;;;;;-2.79;75.01465;95876.11;;;;
2024/01/09 02:28:18;;;;;;;29.35;20.65;;;;;;;-2.79;75.01465;95876.11;;;;
2024/01/09 02:29:24;;;;;;;29.35;20.65;;;;;;;-2.79;75.01465;95876.11;;;;
2024/01/09 02:30:24;;;;;;;29.35;20.65;;;;;;;-2.79;75.01465;95876.11;;;;
2024/01/09 02:31:25;;;;;;;29.35;20.65;;;;;;;-2.79;75.01465;95876.11;;;;
2024/01/09 02:32:26;;;;;;;29.35;20.65;;;;;;;-2.79;75.01465;95876.11;;;;
2024/01/09 02:33:26;;;;;;;29.35;20.65;;;;;;;-2.79;75.01465;95876.11;;;;
2024/01/09 02:34:28;;;;;;;29.35;20.65;;;;;;;-2.79;75.01465;95876.11;;;;
2024/01/09 02:35:32;;;;;;;29.35;20.65;;;;;;;-2.79;75.01465;95876.11;;;;
2024/01/09 02:36:32;;;;;;;29.35;20.65;;;;;;;-2.79;75.01465;95876.11;;;;
2024/01/09 02:37:33;;;;;;;33.95;22.65;;;;;;;-2.64;74.46777;95871.06;;;;
2024/01/09 02:38:33;;;;;;;33.95;22.65;;;;;;;-2.64;74.46777;95871.06;;;;
2024/01/09 02:39:34;;;;;;;33.95;22.65;;;;;;;-2.64;74.46777;95871.06;;;;
2024/01/09 02:40:34;;;;;;;33.95;22.65;;;;;;;-2.64;74.46777;95871.06;;;;
2024/01/09 02:41:35;;;;;;;33.95;22.65;;;;;;;-2.64;74.46777;95871.06;;;;
2024/01/09 02:42:36;;;;;;;33.95;22.65;;;;;;;-2.64;74.46777;95871.06;;;;
2024/01/09 02:43:36;;;;;;;33.95;22.65;;;;;;;-2.64;74.46777;95871.06;;;;
2024/01/09 02:44:37;;;;;;;33.95;22.65;;;;;;;-2.64;74.46777;95871.06;;;;
2024/01/09 02:45:37;;;;;;;33.95;22.65;;;;;;;-2.64;74.46777;95871.06;;;;
2024/01/09 02:46:38;;;;;;;33.95;22.65;;;;;;;-2.64;74.46777;95871.06;;;;
2024/01/09 02:47:38;;;;;;;34.8;23.6;;;;;;;-2.73;74.94336;95872.16;;;;
2024/01/09 02:48:39;;;;;;;34.8;23.6;;;;;;;-2.73;74.94336;95872.16;;;;
2024/01/09 02:49:39;;;;;;;34.8;23.6;;;;;;;-2.73;74.94336;95872.16;;;;
2024/01/09 02:50:40;;;;;;;34.8;23.6;;;;;;;-2.73;74.94336;95872.16;;;;
2024/01/09 02:51:40;;;;;;;34.8;23.6;;;;;;;-2.73;74.94336;95872.16;;;;
2024/01/09 02:52:41;;;;;;;34.8;23.6;;;;;;;-2.73;74.94336;95872.16;;;;
2024/01/09 02:53:41;;;;;;;34.8;23.6;;;;;;;-2.73;74.94336;95872.16;;;;
2024/01/09 02:54:41;;;;;;;34.8;23.6;;;;;;;-2.73;74.94336;95872.16;;;;
2024/01/09 02:55:42;;;;;;;34.8;23.6;;;;;;;-2.73;74.94336;95872.16;;;;
2024/01/09 02:56:42;;;;;;;34.8;23.6;;;;;;;-2.73;74.94336;95872.16;;;;
2024/01/09 02:57:43;;;;;;;34.8;23.6;;;;;;;-2.73;74.94336;95872.16;;;;
2024/01/09 02:58:44;;;;;;;33.35001;23.5;;;;;;;-2.62;74.61914;95867.41;;;;
2024/01/09 02:59:44;;;;;;;33.35001;23.5;;;;;;;-2.62;74.61914;95867.41;;;;
2024/01/09 03:00:44;;;;;;;33.35001;23.5;;;;;;;-2.62;74.61914;95867.41;;;;
2024/01/09 03:01:45;;;;;;;33.35001;23.5;;;;;;;-2.62;74.61914;95867.41;;;;
2024/01/09 03:02:45;;;;;;;33.35001;23.5;;;;;;;-2.62;74.61914;95867.41;;;;
2024/01/09 03:03:46;;;;;;;33.35001;23.5;;;;;;;-2.62;74.61914;95867.41;;;;
2024/01/09 03:04:46;;;;;;;33.35001;23.5;;;;;;;-2.62;74.61914;95867.41;;;;
2024/01/09 03:05:47;;;;;;;33.35001;23.5;;;;;;;-2.62;74.61914;95867.41;;;;
2024/01/09 03:06:47;;;;;;;33.35001;23.5;;;;;;;-2.62;74.61914;95867.41;;;;
2024/01/09 03:07:48;;;;;;;33.35001;23.5;;;;;;;-2.62;74.61914;95867.41;;;;
2024/01/09 03:08:48;;;;;;;33.35001;23.5;;;;;;;-2.62;74.61914;95867.41;;;;
2024/01/09 03:09:49;;;;;;;37.45;25.1;;;;;;;-2.62;74.80664;95862.23;;;;
2024/01/09 03:10:49;;;;;;;37.45;25.1;;;;;;;-2.62;74.80664;95862.23;;;;
2024/01/09 03:11:50;;;;;;;37.45;25.1;;;;;;;-2.62;74.80664;95862.23;;;;
2024/01/09 03:12:50;;;;;;;37.45;25.1;;;;;;;-2.62;74.80664;95862.23;;;;
2024/01/09 03:13:51;;;;;;;37.45;25.1;;;;;;;-2.62;74.80664;95862.23;;;;
2024/01/09 03:14:51;;;;;;;37.45;25.1;;;;;;;-2.62;74.80664;95862.23;;;;
2024/01/09 03:15:52;;;;;;;37.45;25.1;;;;;;;-2.62;74.80664;95862.23;;;;
2024/01/09 03:16:52;;;;;;;37.45;25.1;;;;;;;-2.62;74.80664;95862.23;;;;
2024/01/09 03:17:53;;;;;;;37.45;25.1;;;;;;;-2.62;74.80664;95862.23;;;;
2024/01/09 03:18:53;;;;;;;37.45;25.1;;;;;;;-2.62;74.80664;95862.23;;;;
2024/01/09 03:19:54;;;;;;;33.45;24.1;;;;;;;-2.54;74.75684;95868.09;;;;
2024/01/09 03:20:54;;;;;;;33.45;24.1;;;;;;;-2.54;74.75684;95868.09;;;;
2024/01/09 03:21:55;;;;;;;33.45;24.1;;;;;;;-2.54;74.75684;95868.09;;;;
2024/01/09 03:22:55;;;;;;;33.45;24.1;;;;;;;-2.54;74.75684;95868.09;;;;
2024/01/09 03:23:56;;;;;;;33.45;24.1;;;;;;;-2.54;74.75684;95868.09;;;;
2024/01/09 03:24:57;;;;;;;33.45;24.1;;;;;;;-2.54;74.75684;95868.09;;;;
2024/01/09 03:25:57;;;;;;;33.45;24.1;;;;;;;-2.54;74.75684;95868.09;;;;
2024/01/09 03:26:58;;;;;;;33.45;24.1;;;;;;;-2.54;74.75684;95868.09;;;;
2024/01/09 03:27:58;;;;;;;33.45;24.1;;;;;;;-2.54;74.75684;95868.09;;;;
2024/01/09 03:28:59;;;;;;;33.45;24.1;;;;;;;-2.54;74.75684;95868.09;;;;
2024/01/09 03:30:00;;;;;;;33.45;24.1;;;;;;;-2.54;74.75684;95868.09;;;;
2024/01/09 03:31:00;;;;;;;33.25;24.05;;;;;;;-2.55;74.77832;95866.42;;;;
2024/01/09 03:32:01;;;;;;;33.25;24.05;;;;;;;-2.55;74.77832;95866.42;;;;
2024/01/09 03:33:01;;;;;;;33.25;24.05;;;;;;;-2.55;74.77832;95866.42;;;;
2024/01/09 03:34:02;;;;;;;33.25;24.05;;;;;;;-2.55;74.77832;95866.42;;;;
2024/01/09 03:35:03;;;;;;;33.25;24.05;;;;;;;-2.55;74.77832;95866.42;;;;
2024/01/09 03:36:04;;;;;;;33.25;24.05;;;;;;;-2.55;74.77832;95866.42;;;;
2024/01/09 03:37:07;;;;;;;33.25;24.05;;;;;;;-2.55;74.77832;95866.42;;;;
2024/01/09 03:38:07;;;;;;;33.25;24.05;;;;;;;-2.55;74.77832;95866.42;;;;
2024/01/09 03:39:09;;;;;;;33.25;24.05;;;;;;;-2.55;74.77832;95866.42;;;;
2024/01/09 03:40:09;;;;;;;33.25;24.05;;;;;;;-2.55;74.77832;95866.42;;;;
2024/01/09 03:41:11;;;;;;;33.75001;22.65;;;;;;;-2.56;74.60742;95859.66;;;;
2024/01/09 03:42:12;;;;;;;33.75001;22.65;;;;;;;-2.56;74.60742;95859.66;;;;
2024/01/09 03:43:12;;;;;;;33.75001;22.65;;;;;;;-2.56;74.60742;95859.66;;;;
2024/01/09 03:44:13;;;;;;;33.75001;22.65;;;;;;;-2.56;74.60742;95859.66;;;;
2024/01/09 03:45:13;;;;;;;33.75001;22.65;;;;;;;-2.56;74.60742;95859.66;;;;
2024/01/09 03:46:14;;;;;;;33.75001;22.65;;;;;;;-2.56;74.60742;95859.66;;;;
2024/01/09 03:47:14;;;;;;;33.75001;22.65;;;;;;;-2.56;74.60742;95859.66;;;;
2024/01/09 03:48:15;;;;;;;33.75001;22.65;;;;;;;-2.56;74.60742;95859.66;;;;
2024/01/09 03:49:15;;;;;;;33.75001;22.65;;;;;;;-2.56;74.60742;95859.66;;;;
2024/01/09 03:50:16;;;;;;;33.75001;22.65;;;;;;;-2.56;74.60742;95859.66;;;;
2024/01/09 03:51:16;;;;;;;33.75001;22.65;;;;;;;-2.56;74.60742;95859.66;;;;
2024/01/09 03:52:17;;;;;;;33.75;22.65;;;;;;;-2.63;74.83594;95858.42;;;;
2024/01/09 03:53:17;;;;;;;33.75;22.65;;;;;;;-2.63;74.83594;95858.42;;;;
2024/01/09 03:54:18;;;;;;;33.75;22.65;;;;;;;-2.63;74.83594;95858.42;;;;
2024/01/09 03:55:18;;;;;;;33.75;22.65;;;;;;;-2.63;74.83594;95858.42;;;;
2024/01/09 03:56:18;;;;;;;33.75;22.65;;;;;;;-2.63;74.83594;95858.42;;;;
2024/01/09 03:57:19;;;;;;;33.75;22.65;;;;;;;-2.63;74.83594;95858.42;;;;
2024/01/09 03:58:20;;;;;;;33.75;22.65;;;;;;;-2.63;74.83594;95858.42;;;;
2024/01/09 03:59:20;;;;;;;33.75;22.65;;;;;;;-2.63;74.83594;95858.42;;;;
2024/01/09 04:00:20;;;;;;;33.75;22.65;;;;;;;-2.63;74.83594;95858.42;;;;
2024/01/09 04:01:22;;;;;;;33.75;22.65;;;;;;;-2.63;74.83594;95858.42;;;;
2024/01/09 04:02:22;;;;;;;34.35001;23.95;;;;;;;-2.68;74.97168;95857.12;;;;
2024/01/09 04:03:23;;;;;;;34.35001;23.95;;;;;;;-2.68;74.97168;95857.12;;;;
2024/01/09 04:04:24;;;;;;;34.35001;23.95;;;;;;;-2.68;74.97168;95857.12;;;;
2024/01/09 04:05:24;;;;;;;34.35001;23.95;;;;;;;-2.68;74.97168;95857.12;;;;
2024/01/09 04:06:25;;;;;;;34.35001;23.95;;;;;;;-2.68;74.97168;95857.12;;;;
2024/01/09 04:07:25;;;;;;;34.35001;23.95;;;;;;;-2.68;74.97168;95857.12;;;;
2024/01/09 04:08:25;;;;;;;34.35001;23.95;;;;;;;-2.68;74.97168;95857.12;;;;
2024/01/09 04:09:26;;;;;;;34.35001;23.95;;;;;;;-2.68;74.97168;95857.12;;;;
2024/01/09 04:10:27;;;;;;;34.35001;23.95;;;;;;;-2.68;74.97168;95857.12;;;;
2024/01/09 04:11:28;;;;;;;34.35001;23.95;;;;;;;-2.68;74.97168;95857.12;;;;
2024/01/09 04:12:28;;;;;;;34.35001;23.95;;;;;;;-2.68;74.97168;95857.12;;;;
2024/01/09 04:13:29;;;;;;;33.5;23.1;;;;;;;-2.59;74.93652;95862.41;;;;
2024/01/09 04:14:29;;;;;;;33.5;23.1;;;;;;;-2.59;74.93652;95862.41;;;;
2024/01/09 04:15:30;;;;;;;33.5;23.1;;;;;;;-2.59;74.93652;95862.41;;;;
2024/01/09 04:16:30;;;;;;;33.5;23.1;;;;;;;-2.59;74.93652;95862.41;;;;
2024/01/09 04:17:31;;;;;;;33.5;23.1;;;;;;;-2.59;74.93652;95862.41;;;;
2024/01/09 04:18:31;;;;;;;33.5;23.1;;;;;;;-2.59;74.93652;95862.41;;;;
2024/01/09 04:19:32;;;;;;;33.5;23.1;;;;;;;-2.59;74.93652;95862.41;;;;
2024/01/09 04:20:36;;;;;;;33.5;23.1;;;;;;;-2.59;74.93652;95862.41;;;;
2024/01/09 04:21:37;;;;;;;33.5;23.1;;;;;;;-2.59;74.93652;95862.41;;;;
2024/01/09 04:22:37;;;;;;;33.5;23.1;;;;;;;-2.59;74.93652;95862.41;;;;
2024/01/09 04:23:38;;;;;;;33.5;23.1;;;;;;;-2.59;74.93652;95862.41;;;;
2024/01/09 04:24:38;;;;;;;35.35;23.50001;;;;;;;-2.73;75.17285;95866.11;;;;
2024/01/09 04:25:39;;;;;;;35.35;23.50001;;;;;;;-2.73;75.17285;95866.11;;;;
2024/01/09 04:26:39;;;;;;;35.35;23.50001;;;;;;;-2.73;75.17285;95866.11;;;;
2024/01/09 04:27:40;;;;;;;35.35;23.50001;;;;;;;-2.73;75.17285;95866.11;;;;
2024/01/09 04:28:40;;;;;;;35.35;23.50001;;;;;;;-2.73;75.17285;95866.11;;;;
2024/01/09 04:29:41;;;;;;;35.35;23.50001;;;;;;;-2.73;75.17285;95866.11;;;;
2024/01/09 04:30:41;;;;;;;35.35;23.50001;;;;;;;-2.73;75.17285;95866.11;;;;
2024/01/09 04:31:42;;;;;;;35.35;23.50001;;;;;;;-2.73;75.17285;95866.11;;;;
2024/01/09 04:32:42;;;;;;;35.35;23.50001;;;;;;;-2.73;75.17285;95866.11;;;;
2024/01/09 04:33:43;;;;;;;35.35;23.50001;;;;;;;-2.73;75.17285;95866.11;;;;
2024/01/09 04:34:43;;;;;;;34.1;23.55;;;;;;;-2.68;74.60742;95866.17;;;;
2024/01/09 04:35:43;;;;;;;34.1;23.55;;;;;;;-2.68;74.60742;95866.17;;;;
2024/01/09 04:36:44;;;;;;;34.1;23.55;;;;;;;-2.68;74.60742;95866.17;;;;
2024/01/09 04:37:44;;;;;;;34.1;23.55;;;;;;;-2.68;74.60742;95866.17;;;;
2024/01/09 04:38:45;;;;;;;34.1;23.55;;;;;;;-2.68;74.60742;95866.17;;;;
2024/01/09 04:39:46;;;;;;;34.1;23.55;;;;;;;-2.68;74.60742;95866.17;;;;
2024/01/09 04:40:46;;;;;;;34.1;23.55;;;;;;;-2.68;74.60742;95866.17;;;;
2024/01/09 04:41:47;;;;;;;34.1;23.55;;;;;;;-2.68;74.60742;95866.17;;;;
2024/01/09 04:42:47;;;;;;;34.1;23.55;;;;;;;-2.68;74.60742;95866.17;;;;
2024/01/09 04:43:48;;;;;;;34.1;23.55;;;;;;;-2.68;74.60742;95866.17;;;;
2024/01/09 04:44:48;;;;;;;0;0;;;;;;;0;0;0;;;;
2024/01/09 04:45:49;;;;;;;0;0;;;;;;;0;0;0;;;;
2024/01/09 04:46:49;;;;;;;0;0;;;;;;;0;0;0;;;;
2024/01/09 04:47:50;;;;;;;0;0;;;;;;;0;0;0;;;;
2024/01/09 04:48:50;;;;;;;0;0;;;;;;;0;0;0;;;;
2024/01/09 04:49:51;;;;;;;0;0;;;;;;;0;0;0;;;;
2024/01/09 04:50:51;;;;;;;0;0;;;;;;;0;0;0;;;;
2024/01/09 04:51:52;;;;;;;0;0;;;;;;;0;0;0;;;;
2024/01/09 04:52:52;;;;;;;0;0;;;;;;;0;0;0;;;;
2024/01/09 04:53:53;;;;;;;0;0;;;;;;;0;0;0;;;;
2024/01/09 04:54:53;;;;;;;0;0;;;;;;;0;0;0;;;;
2024/01/09 04:55:54;;;;;;;0;0;;;;;;;0;0;0;;;;
2024/01/09 04:56:54;;;;;;;0;0;;;;;;;0;0;0;;;;
2024/01/09 04:57:54;;;;;;;0;0;;;;;;;0;0;0;;;;
2024/01/09 04:58:55;;;;;;;0;0;;;;;;;0;0;0;;;;
2024/01/09 04:59:55;;;;;;;0;0;;;;;;;0;0;0;;;;
2024/01/09 05:00:56;;;;;;;0;0;;;;;;;0;0;0;;;;
2024/01/09 05:01:59;;;;;;;0;0;;;;;;;0;0;0;;;;
2024/01/09 05:02:59;;;;;;;0;0;;;;;;;0;0;0;;;;
2024/01/09 05:04:00;;;;;;;0;0;;;;;;;0;0;0;;;;
2024/01/09 05:05:00;;;;;;;0;0;;;;;;;0;0;0;;;;
2024/01/09 05:06:01;;;;;;;0;0;;;;;;;0;0;0;;;;
2024/01/09 05:07:01;;;;;;;0;0;;;;;;;0;0;0;;;;
2024/01/09 05:08:02;;;;;;;0;0;;;;;;;0;0;0;;;;
2024/01/09 05:09:03;;;;;;;0;0;;;;;;;0;0;0;;;;
2024/01/09 05:10:04;;;;;;;0;0;;;;;;;0;0;0;;;;
2024/01/09 05:11:05;;;;;;;0;0;;;;;;;0;0;0;;;;
2024/01/09 05:12:06;;;;;;;0;0;;;;;;;0;0;0;;;;
2024/01/09 05:13:06;;;;;;;0;0;;;;;;;0;0;0;;;;
2024/01/09 05:14:07;;;;;;;0;0;;;;;;;0;0;0;;;;
2024/01/09 05:15:08;;;;;;;0;0;;;;;;;0;0;0;;;;
2024/01/09 05:16:08;;;;;;;0;0;;;;;;;0;0;0;;;;
2024/01/09 05:17:09;;;;;;;0;0;;;;;;;0;0;0;;;;
2024/01/09 05:18:09;;;;;;;0;0;;;;;;;0;0;0;;;;
2024/01/09 05:19:10;;;;;;;0;0;;;;;;;0;0;0;;;;
2024/01/09 05:20:11;;;;;;;0;0;;;;;;;0;0;0;;;;
2024/01/09 05:21:11;;;;;;;0;0;;;;;;;0;0;0;;;;
2024/01/09 05:22:13;;;;;;;0;0;;;;;;;0;0;0;;;;
2024/01/09 05:23:13;;;;;;;0;0;;;;;;;0;0;0;;;;
2024/01/09 05:24:14;;;;;;;0;0;;;;;;;0;0;0;;;;
2024/01/09 05:25:14;;;;;;;0;0;;;;;;;0;0;0;;;;
2024/01/09 05:26:15;;;;;;;0;0;;;;;;;0;0;0;;;;
2024/01/09 05:27:15;;;;;;;0;0;;;;;;;0;0;0;;;;
2024/01/09 05:28:16;;;;;;;0;0;;;;;;;0;0;0;;;;
2024/01/09 05:29:16;;;;;;;0;0;;;;;;;0;0;0;;;;
2024/01/09 05:30:17;;;;;;;0;0;;;;;;;0;0;0;;;;
2024/01/09 05:31:18;;;;;;;0;0;;;;;;;0;0;0;;;;
2024/01/09 05:32:18;;;;;;;0;0;;;;;;;0;0;0;;;;
2024/01/09 05:33:20;;;;;;;0;0;;;;;;;0;0;0;;;;
2024/01/09 05:34:20;;;;;;;0;0;;;;;;;0;0;0;;;;
2024/01/09 05:35:21;;;;;;;0;0;;;;;;;0;0;0;;;;
2024/01/09 05:36:22;;;;;;;0;0;;;;;;;0;0;0;;;;
2024/01/09 05:37:22;;;;;;;0;0;;;;;;;0;0;0;;;;
2024/01/09 05:38:23;;;;;;;0;0;;;;;;;0;0;0;;;;
2024/01/09 05:39:24;;;;;;;0;0;;;;;;;0;0;0;;;;
2024/01/09 05:40:24;;;;;;;0;0;;;;;;;0;0;0;;;;
2024/01/09 05:41:25;;;;;;;0;0;;;;;;;0;0;0;;;;
2024/01/09 05:42:26;;;;;;;0;0;;;;;;;0;0;0;;;;
2024/01/09 05:43:26;;;;;;;0;0;;;;;;;0;0;0;;;;
2024/01/09 05:44:26;;;;;;;0;0;;;;;;;0;0;0;;;;
2024/01/09 05:45:27;;;;;;;0;0;;;;;;;0;0;0;;;;
2024/01/09 05:46:27;;;;;;;0;0;;;;;;;0;0;0;;;;
2024/01/09 05:47:28;;;;;;;0;0;;;;;;;0;0;0;;;;
2024/01/09 05:48:28;;;;;;;0;0;;;;;;;0;0;0;;;;
2024/01/09 05:49:29;;;;;;;0;0;;;;;;;0;0;0;;;;
2024/01/09 05:50:29;;;;;;;0;0;;;;;;;0;0;0;;;;
2024/01/09 05:51:30;;;;;;;0;0;;;;;;;0;0;0;;;;
2024/01/09 05:52:30;;;;;;;0;0;;;;;;;0;0;0;;;;
2024/01/09 05:53:31;;;;;;;0;0;;;;;;;0;0;0;;;;
2024/01/09 05:54:31;;;;;;;0;0;;;;;;;0;0;0;;;;
2024/01/09 05:55:31;;;;;;;0;0;;;;;;;0;0;0;;;;
2024/01/09 05:56:32;;;;;;;0;0;;;;;;;0;0;0;;;;
2024/01/09 05:57:32;;;;;;;0;0;;;;;;;0;0;0;;;;
2024/01/09 05:58:33;;;;;;;0;0;;;;;;;0;0;0;;;;
2024/01/09 05:59:34;;;;;;;0;0;;;;;;;0;0;0;;;;
2024/01/09 06:00:35;;;;;;;0;0;;;;;;;0;0;0;;;;
2024/01/09 06:01:36;;;;;;;0;0;;;;;;;0;0;0;;;;
2024/01/09 06:02:36;;;;;;;0;0;;;;;;;0;0;0;;;;
2024/01/09 06:03:37;;;;;;;0;0;;;;;;;0;0;0;;;;
2024/01/09 06:04:37;;;;;;;0;0;;;;;;;0;0;0;;;;